Time;durP1;ratioP1;P1;durP2;ratioP2;P2;SDS_P1;SDS_P2;PMS_P1;PMS_P2;Temp;Humidity;BMP_temperature;BMP_pressure;BME280_temperature;BME280_humidity;BME280_pressure;Samples;Min_cycle;Max_cycle;Signal;HPM_P1;HPM_P2
2022/01/25 00:08:28;;;;;;;14.05;8.43;;;;;;;0.74;46.66;100809.53;3386011;29;20055;-73
2022/01/25 00:26:17;;;;;;;10.43;6.80;;;;;;;0.70;46.48;100788.84;3380419;29;20024;-75
2022/01/25 00:28:18;;;;;;;11.63;7.60;;;;;;;0.71;46.28;100774.78;3379882;29;20053;-76
2022/01/25 00:34:21;;;;;;;14.18;7.97;;;;;;;0.67;46.39;100765.44;3421781;23;20048;-76
2022/01/25 00:40:37;;;;;;;12.68;7.78;;;;;;;0.58;45.97;100751.19;2965814;23;20076;-74
2022/01/25 00:47:20;;;;;;;10.52;6.45;;;;;;;0.55;46.53;100765.34;3870780;23;20041;-75
2022/01/25 01:00:25;;;;;;;10.43;6.68;;;;;;;0.28;46.30;100751.44;3610350;23;20031;-75
2022/01/25 01:10:43;;;;;;;11.50;6.22;;;;;;;0.22;46.33;100706.34;2545211;23;20068;-74
2022/01/25 01:13:18;;;;;;;10.02;6.80;;;;;;;0.22;46.33;100695.03;3393400;29;20037;-74
2022/01/25 01:16:46;;;;;;;10.77;7.25;;;;;;;0.28;46.37;100704.25;3366838;29;20077;-74
2022/01/25 01:32:28;;;;;;;8.38;6.47;;;;;;;0.25;46.58;100681.69;3379671;29;20049;-76
2022/01/25 01:34:49;;;;;;;11.27;6.32;;;;;;;0.24;46.49;100664.31;3368208;29;20021;-73
2022/01/25 01:40:23;;;;;;;12.70;6.47;;;;;;;0.23;46.36;100665.22;3366069;29;20049;-75
2022/01/25 01:44:09;;;;;;;13.60;6.63;;;;;;;0.26;46.23;100656.31;3364286;29;20029;-74
2022/01/25 01:47:50;;;;;;;11.45;7.82;;;;;;;0.30;46.59;100642.06;3364397;29;20052;-73
2022/01/25 01:49:38;;;;;;;12.43;7.15;;;;;;;0.31;46.32;100635.88;3364583;29;20057;-74
2022/01/25 01:51:30;;;;;;;11.98;6.80;;;;;;;0.31;46.70;100631.50;3366032;29;20113;-74
2022/01/25 01:53:10;;;;;;;12.32;6.93;;;;;;;0.32;46.77;100633.16;3371728;29;20519;-75
2022/01/25 01:54:51;;;;;;;10.38;6.85;;;;;;;0.31;46.82;100625.38;3378090;29;20049;-74
2022/01/25 01:56:32;;;;;;;11.63;7.35;;;;;;;0.31;46.63;100628.88;3379817;29;20037;-74
2022/01/25 01:58:14;;;;;;;9.25;6.40;;;;;;;0.32;46.64;100627.91;3379296;29;20064;-73
2022/01/25 01:59:55;;;;;;;;;;;;;;;0.42;46.80;100631.59;3376645;29;20074;-75
2022/01/25 02:01:37;;;;;;;10.18;6.40;;;;;;;0.36;46.75;100613.66;3380019;29;19908;-74
2022/01/25 02:03:19;;;;;;;13.80;7.47;;;;;;;0.35;46.53;100614.59;3368319;29;20056;-76
2022/01/25 02:04:59;;;;;;;10.38;6.68;;;;;;;0.34;46.71;100609.47;3367212;29;20061;-74
2022/01/25 02:06:40;;;;;;;10.10;6.05;;;;;;;0.30;46.41;100611.44;3366872;29;20387;-75
2022/01/25 02:08:21;;;;;;;11.57;6.45;;;;;;;0.32;46.48;100617.44;3367416;29;20033;-74
2022/01/25 02:10:04;;;;;;;9.50;6.68;;;;;;;0.34;46.61;100610.31;3378362;29;20052;-73
2022/01/25 02:11:45;;;;;;;11.85;6.60;;;;;;;0.35;46.67;100608.50;3365881;29;20045;-74
2022/01/25 02:13:26;;;;;;;10.68;5.78;;;;;;;0.35;46.73;100611.97;3364374;29;20041;-75
2022/01/25 02:15:08;;;;;;;9.90;6.72;;;;;;;0.36;46.95;100612.78;3363543;29;20033;-73
2022/01/25 02:22:32;;;;;;;14.00;6.88;;;;;;;0.42;46.68;100604.53;3365542;29;20041;-72
2022/01/25 02:24:13;;;;;;;12.02;7.53;;;;;;;0.43;46.64;100601.78;3365880;29;20057;-72
2022/01/25 02:25:58;;;;;;;12.47;6.87;;;;;;;0.44;46.55;100605.25;3366989;29;20551;-73
2022/01/25 02:27:38;;;;;;;13.38;6.95;;;;;;;0.44;46.89;100597.41;3368192;29;20066;-72
2022/01/25 02:29:19;;;;;;;13.13;6.88;;;;;;;0.44;46.52;100586.91;3366402;29;20048;-73
2022/01/25 02:31:00;;;;;;;13.27;7.43;;;;;;;0.44;46.92;100594.78;3366936;29;20044;-71
2022/01/25 02:32:41;;;;;;;11.48;6.65;;;;;;;0.45;46.53;100593.00;3364115;29;20042;-73
2022/01/25 02:34:23;;;;;;;12.70;7.25;;;;;;;0.46;46.94;100589.41;3360257;29;20040;-74
2022/01/25 02:36:07;;;;;;;11.73;7.18;;;;;;;0.46;46.58;100595.47;3365992;29;20021;-74
2022/01/25 02:37:49;;;;;;;14.05;7.45;;;;;;;0.48;46.94;100590.97;3376193;29;20067;-75
2022/01/25 02:39:30;;;;;;;10.68;6.70;;;;;;;0.48;46.98;100585.72;3365552;29;20045;-73
2022/01/25 02:41:11;;;;;;;10.50;6.93;;;;;;;0.49;46.91;100586.56;3366242;29;20049;-75
2022/01/25 02:42:52;;;;;;;13.00;7.32;;;;;;;0.49;46.77;100581.31;3366835;29;20029;-75
2022/01/25 02:44:35;;;;;;;11.85;6.75;;;;;;;0.49;46.90;100578.69;3366620;29;20068;-75
2022/01/25 02:49:56;;;;;;;12.95;6.93;;;;;;;0.49;46.97;100571.69;3365225;29;20041;-75
2022/01/25 02:51:43;;;;;;;10.60;6.47;;;;;;;0.49;46.72;100565.59;3366501;29;20033;-75
2022/01/25 02:53:24;;;;;;;11.70;7.63;;;;;;;0.45;46.82;100564.97;3368218;29;20081;-77
2022/01/25 02:55:05;;;;;;;14.15;7.88;;;;;;;0.45;46.72;100578.09;3380314;29;20036;-76
2022/01/25 02:56:47;;;;;;;11.65;7.20;;;;;;;0.45;46.76;100574.63;3380525;29;20093;-73
2022/01/25 02:58:27;;;;;;;11.23;6.85;;;;;;;0.46;46.88;100565.81;3377303;29;20129;-73
2022/01/25 03:00:09;;;;;;;7.90;6.03;;;;;;;0.47;46.89;100559.63;3374981;29;20045;-75
2022/01/25 03:01:50;;;;;;;13.75;7.25;;;;;;;0.47;46.88;100562.25;3377622;29;20053;-75
2022/01/25 03:03:31;;;;;;;15.70;6.70;;;;;;;0.50;46.79;100562.88;3375635;29;20118;-73
2022/01/25 03:05:12;;;;;;;11.68;6.30;;;;;;;0.49;46.77;100563.81;3363842;29;20042;-75
2022/01/25 03:06:53;;;;;;;10.35;6.35;;;;;;;0.48;46.75;100548.19;3364532;29;20074;-75
2022/01/25 03:08:34;;;;;;;9.27;5.55;;;;;;;0.49;47.09;100557.72;3364895;29;20067;-75
2022/01/25 03:10:15;;;;;;;10.70;6.03;;;;;;;0.48;47.00;100556.88;3365832;29;20109;-73
2022/01/25 03:11:57;;;;;;;11.88;6.93;;;;;;;0.48;46.99;100548.19;3366174;29;20074;-76
2022/01/25 03:13:49;;;;;;;10.25;6.00;;;;;;;0.46;46.85;100543.03;3363920;29;20037;-74
2022/01/25 03:15:53;;;;;;;;;;;;;;;0.57;46.67;100547.53;3364690;29;20053;-73
2022/01/25 03:17:31;;;;;;;10.23;6.13;;;;;;;0.47;46.80;100541.28;3363347;29;19924;-75
2022/01/25 03:23:18;;;;;;;11.77;5.65;;;;;;;0.37;46.51;100541.91;3369607;29;20060;-74
2022/01/25 03:24:59;;;;;;;9.50;6.47;;;;;;;0.35;46.28;100540.34;3381814;29;20033;-74
2022/01/25 03:26:40;;;;;;;9.55;6.20;;;;;;;0.33;46.40;100534.38;3381654;29;20037;-74
2022/01/25 03:28:21;;;;;;;10.00;6.28;;;;;;;0.32;46.26;100535.31;3380499;29;20044;-73
2022/01/25 03:30:02;;;;;;;7.55;5.82;;;;;;;0.31;46.54;100537.09;3379419;29;20056;-73
2022/01/25 03:31:43;;;;;;;8.50;6.00;;;;;;;0.30;46.55;100535.41;3372892;29;20078;-73
2022/01/25 03:33:24;;;;;;;8.05;5.40;;;;;;;0.30;46.30;100532.78;3364532;29;20070;-74
2022/01/25 03:35:05;;;;;;;8.77;6.40;;;;;;;0.28;46.56;100531.22;3376730;29;20041;-74
2022/01/25 03:36:46;;;;;;;11.80;6.32;;;;;;;0.29;46.11;100539.00;3376821;29;20055;-72
2022/01/25 03:38:27;;;;;;;12.03;6.80;;;;;;;0.29;46.38;100528.50;3377167;29;20077;-74
2022/01/25 03:40:09;;;;;;;10.27;6.68;;;;;;;0.28;46.60;100526.81;3377830;29;20317;-73
2022/01/25 03:41:50;;;;;;;8.18;5.60;;;;;;;0.29;46.22;100522.44;3378547;29;20040;-74
2022/01/25 03:43:30;;;;;;;10.02;5.68;;;;;;;0.27;46.55;100527.78;3371041;29;20041;-73
2022/01/25 03:45:18;;;;;;;10.45;5.85;;;;;;;0.27;46.35;100519.91;3365079;29;20043;-72
2022/01/25 03:47:05;;;;;;;8.93;6.00;;;;;;;0.28;46.60;100520.75;3365262;29;20073;-73
2022/01/25 03:50:48;;;;;;;9.57;6.28;;;;;;;0.28;46.57;100511.09;3365475;29;20045;-75
2022/01/25 03:52:34;;;;;;;10.38;6.32;;;;;;;0.26;46.35;100513.00;3366257;29;20049;-76
2022/01/25 03:54:15;;;;;;;10.02;5.88;;;;;;;0.26;46.69;100515.63;3364956;29;20108;-75
2022/01/25 03:55:56;;;;;;;11.00;7.30;;;;;;;0.25;46.66;100515.72;3365127;29;20044;-74
2022/01/25 03:57:36;;;;;;;8.88;6.22;;;;;;;0.24;47.02;100508.81;3366948;29;20092;-76
2022/01/25 03:59:17;;;;;;;8.48;5.72;;;;;;;0.25;46.91;100506.06;3369532;29;20030;-74
2022/01/25 04:00:58;;;;;;;14.32;7.95;;;;;;;0.25;47.01;100500.81;3368903;29;20029;-75
2022/01/25 04:07:10;;;;;;;15.40;7.88;;;;;;;0.26;46.86;100483.31;2483683;27;20056;-79
2022/01/25 04:08:51;;;;;;;13.20;8.00;;;;;;;0.24;46.53;100486.06;3499586;23;20068;-75
2022/01/25 04:12:42;;;;;;;14.77;7.75;;;;;;;0.23;46.87;100486.97;3478049;23;20048;-76
2022/01/25 04:14:22;;;;;;;12.05;7.10;;;;;;;0.23;46.72;100489.59;3539803;23;20053;-76
2022/01/25 04:16:10;;;;;;;13.60;7.97;;;;;;;0.21;46.73;100479.25;3391428;29;20056;-74
2022/01/25 04:18:01;;;;;;;15.00;7.78;;;;;;;0.23;47.15;100484.34;3387245;29;20049;-74
2022/01/25 04:19:46;;;;;;;13.57;7.78;;;;;;;0.22;46.68;100483.53;3391700;29;20081;-76
2022/01/25 04:21:46;;;;;;;14.40;8.38;;;;;;;0.18;46.69;100478.59;3378444;29;20047;-75
2022/01/25 04:25:27;;;;;;;14.85;7.97;;;;;;;0.18;46.82;100479.47;3380019;29;20029;-78
2022/01/25 04:27:08;;;;;;;15.63;8.70;;;;;;;0.18;47.01;100473.34;3379371;29;20052;-76
2022/01/25 04:30:59;;;;;;;15.25;8.25;;;;;;;0.16;46.66;100472.66;3266418;27;20049;-75
2022/01/25 04:34:46;;;;;;;16.95;9.70;;;;;;;0.10;46.77;100468.66;3375516;29;20047;-76
2022/01/25 04:50:05;;;;;;;15.63;8.10;;;;;;;0.34;47.83;100460.84;3364409;29;20044;-71
2022/01/25 04:55:57;;;;;;;13.45;7.90;;;;;;;0.45;48.12;100454.00;3354361;29;20065;-69
2022/01/25 04:57:51;;;;;;;14.63;8.23;;;;;;;0.46;48.30;100447.81;3364870;29;20404;-72
2022/01/25 05:01:21;;;;;;;14.02;8.18;;;;;;;0.46;48.48;100445.19;3369386;29;20180;-72
2022/01/25 05:03:10;;;;;;;14.48;8.32;;;;;;;0.48;48.46;100445.91;3368912;29;20044;-72
2022/01/25 05:04:54;;;;;;;12.30;8.05;;;;;;;0.49;48.70;100439.69;3369258;29;20673;-71
2022/01/25 05:06:34;;;;;;;16.83;9.35;;;;;;;0.49;48.72;100434.47;3367237;29;20625;-73
2022/01/25 05:08:30;;;;;;;15.52;7.80;;;;;;;0.51;48.74;100438.66;3369209;29;20089;-73
2022/01/25 05:10:11;;;;;;;20.38;9.75;;;;;;;0.54;48.55;100427.97;3370060;29;20060;-73
2022/01/25 05:11:52;;;;;;;13.73;8.43;;;;;;;0.56;48.52;100418.16;3373634;29;20062;-74
2022/01/25 05:13:47;;;;;;;17.30;9.63;;;;;;;0.60;48.78;100419.63;3369992;29;20532;-73
2022/01/25 05:15:59;;;;;;;15.50;9.25;;;;;;;0.65;48.62;100424.53;3371248;29;20045;-74
2022/01/25 05:17:36;;;;;;;12.13;8.50;;;;;;;0.69;48.42;100430.38;3359560;29;20045;-72
2022/01/25 05:22:58;;;;;;;14.52;9.45;;;;;;;0.74;48.61;100408.09;3374181;29;20627;-73
2022/01/25 05:24:41;;;;;;;16.27;9.15;;;;;;;0.71;48.68;100407.50;3370733;29;20127;-74
2022/01/25 05:26:23;;;;;;;17.10;9.60;;;;;;;0.70;48.64;100411.06;3375550;29;20084;-75
2022/01/25 05:28:03;;;;;;;17.60;9.52;;;;;;;0.69;48.29;100409.41;3376875;29;20036;-74
2022/01/25 05:29:44;;;;;;;15.95;10.02;;;;;;;0.70;48.26;100406.69;3375276;29;20052;-74
2022/01/25 05:31:25;;;;;;;17.80;9.93;;;;;;;0.70;48.84;100409.31;3374183;29;20071;-74
2022/01/25 05:33:05;;;;;;;16.00;10.27;;;;;;;0.71;48.59;100408.34;3376173;29;20052;-75
2022/01/25 05:34:46;;;;;;;20.98;10.50;;;;;;;0.69;48.27;100407.63;3375591;29;20097;-74
2022/01/25 05:36:27;;;;;;;18.58;9.63;;;;;;;0.66;48.32;100397.34;3373928;29;20049;-74
2022/01/25 05:38:08;;;;;;;18.25;10.38;;;;;;;0.66;48.37;100394.72;3374788;29;20054;-75
2022/01/25 05:39:49;;;;;;;19.33;10.02;;;;;;;0.63;48.35;100390.53;3374775;29;20049;-75
2022/01/25 05:41:32;;;;;;;17.77;11.00;;;;;;;0.62;48.25;100391.50;3374506;29;20765;-75
2022/01/25 05:44:58;;;;;;;18.38;10.77;;;;;;;0.64;48.50;100383.50;3375120;29;20021;-73
2022/01/25 05:46:52;;;;;;;16.27;9.43;;;;;;;0.64;48.10;100386.13;3375768;29;20071;-74
2022/01/25 05:48:33;;;;;;;17.60;9.70;;;;;;;0.62;48.41;100383.63;3376857;29;20153;-75
2022/01/25 05:50:14;;;;;;;21.30;11.25;;;;;;;0.59;48.32;100377.75;3377268;29;20037;-73
2022/01/25 05:51:56;;;;;;;18.33;10.10;;;;;;;0.59;48.42;100367.28;3376843;29;20081;-73
2022/01/25 05:53:37;;;;;;;19.65;10.73;;;;;;;0.59;48.49;100362.03;3377092;29;20119;-75
2022/01/25 05:55:18;;;;;;;22.10;11.18;;;;;;;0.64;48.34;100367.78;3376702;29;20073;-74
2022/01/25 05:56:58;;;;;;;20.73;10.15;;;;;;;0.67;48.36;100364.91;3376985;29;20045;-75
2022/01/25 05:58:39;;;;;;;19.38;11.30;;;;;;;0.70;48.35;100364.72;3373595;29;20133;-75
2022/01/25 06:00:20;;;;;;;22.98;12.13;;;;;;;0.73;48.50;100372.34;3373181;29;20070;-75
2022/01/25 06:02:01;;;;;;;23.08;11.65;;;;;;;0.74;48.51;100375.78;3372251;29;20053;-74
2022/01/25 06:03:44;;;;;;;19.73;10.52;;;;;;;0.74;48.34;100376.63;3375662;29;20109;-74
2022/01/25 06:05:25;;;;;;;19.25;11.00;;;;;;;0.76;48.43;100374.72;3372624;29;20052;-74
2022/01/25 06:07:06;;;;;;;18.95;11.43;;;;;;;0.80;48.34;100376.19;3375149;29;20055;-74
2022/01/25 06:08:46;;;;;;;26.45;12.90;;;;;;;0.80;48.45;100365.69;3375879;29;20117;-73
2022/01/25 06:10:27;;;;;;;20.83;10.68;;;;;;;0.84;48.34;100367.13;3375004;29;20043;-74
2022/01/25 06:12:10;;;;;;;19.95;10.55;;;;;;;0.86;48.21;100375.72;3375390;29;20045;-73
2022/01/25 06:13:51;;;;;;;22.73;11.93;;;;;;;0.86;48.26;100375.72;3377030;29;20041;-74
2022/01/25 06:15:32;;;;;;;18.33;10.65;;;;;;;0.85;48.03;100355.69;3374284;29;20051;-76
2022/01/25 06:17:13;;;;;;;20.67;11.85;;;;;;;0.83;48.14;100347.09;3374137;29;20045;-75
2022/01/25 06:18:55;;;;;;;19.58;10.63;;;;;;;0.82;48.22;100347.19;3375284;29;20049;-75
2022/01/25 06:20:36;;;;;;;23.83;11.25;;;;;;;0.83;47.95;100354.13;3374837;29;20037;-76
2022/01/25 06:22:16;;;;;;;17.73;10.60;;;;;;;0.79;47.98;100348.25;3375447;29;20068;-75
2022/01/25 06:23:57;;;;;;;25.23;12.73;;;;;;;0.79;47.91;100345.63;3377265;29;20076;-74
2022/01/25 06:25:38;;;;;;;20.58;10.77;;;;;;;0.82;48.23;100347.19;3378101;29;20045;-76
2022/01/25 06:27:19;;;;;;;20.77;11.20;;;;;;;0.84;48.32;100340.88;3376617;29;20125;-74
2022/01/25 06:29:00;;;;;;;20.58;12.00;;;;;;;0.88;48.31;100336.25;3377356;29;20084;-74
2022/01/25 06:30:41;;;;;;;22.70;11.68;;;;;;;0.91;48.39;100333.38;3376273;29;20485;-75
2022/01/25 06:32:22;;;;;;;23.67;12.43;;;;;;;0.93;47.89;100335.88;3371054;29;20100;-74
2022/01/25 06:34:03;;;;;;;21.35;10.95;;;;;;;0.92;48.06;100327.19;3368307;29;20043;-73
2022/01/25 06:35:49;;;;;;;20.65;10.75;;;;;;;0.92;48.17;100323.72;3368963;29;20037;-73
2022/01/25 06:37:30;;;;;;;19.15;11.25;;;;;;;0.93;48.07;100312.25;3369038;29;20049;-73
2022/01/25 06:39:11;;;;;;;24.20;11.18;;;;;;;0.97;48.45;100314.53;3382035;29;20040;-74
2022/01/25 06:40:51;;;;;;;21.35;10.85;;;;;;;0.97;47.95;100303.22;3371976;29;20049;-75
2022/01/25 06:42:34;;;;;;;19.80;11.63;;;;;;;0.98;48.11;100297.00;3372653;29;20041;-74
2022/01/25 06:44:14;;;;;;;;;;;;;;;1.11;47.89;100304.78;3372861;29;20049;-73
2022/01/25 06:46:00;;;;;;;20.35;10.15;;;;;;;1.06;48.16;100302.53;3372630;29;19928;-75
2022/01/25 06:47:42;;;;;;;17.73;10.02;;;;;;;1.05;47.72;100303.47;3373167;29;20033;-75
2022/01/25 06:49:26;;;;;;;18.83;11.00;;;;;;;1.06;48.16;100297.28;3372837;29;20037;-74
2022/01/25 06:51:08;;;;;;;20.40;10.45;;;;;;;1.07;47.67;100293.69;3371502;29;20061;-75
2022/01/25 06:52:49;;;;;;;18.65;10.02;;;;;;;1.07;47.69;100291.88;3374034;29;20045;-75
2022/01/25 06:54:30;;;;;;;18.23;10.32;;;;;;;1.07;48.30;100284.00;3374823;29;20075;-76
2022/01/25 06:56:13;;;;;;;19.38;10.85;;;;;;;1.08;48.18;100279.59;3374430;29;20489;-75
2022/01/25 06:57:54;;;;;;;23.48;11.00;;;;;;;1.12;47.91;100295.97;3375059;29;20068;-74
2022/01/25 06:59:35;;;;;;;17.35;10.90;;;;;;;1.16;47.84;100286.88;3375728;29;20053;-75
2022/01/25 07:01:17;;;;;;;17.60;10.05;;;;;;;1.18;47.87;100280.53;3373954;29;20047;-75
2022/01/25 07:02:58;;;;;;;26.17;12.30;;;;;;;1.21;47.92;100280.31;3375381;29;20053;-77
2022/01/25 07:04:39;;;;;;;19.80;11.77;;;;;;;1.21;47.67;100277.69;3375848;29;20053;-75
2022/01/25 07:06:20;;;;;;;20.30;10.45;;;;;;;1.21;47.43;100275.06;3374612;29;20037;-76
2022/01/25 07:08:01;;;;;;;17.80;9.18;;;;;;;1.22;47.53;100271.50;3374789;29;20045;-74
2022/01/25 07:09:44;;;;;;;17.58;10.15;;;;;;;1.24;47.74;100280.09;3376643;29;20041;-75
2022/01/25 07:11:25;;;;;;;22.58;12.05;;;;;;;1.26;47.52;100275.53;3376677;29;20036;-75
2022/01/25 07:13:06;;;;;;;22.52;12.27;;;;;;;1.27;47.64;100279.84;3375288;29;20089;-75
2022/01/25 07:14:47;;;;;;;21.58;11.80;;;;;;;1.25;47.51;100270.41;3375609;29;20037;-75
2022/01/25 07:16:28;;;;;;;20.15;11.25;;;;;;;1.25;47.67;100271.25;3377111;29;20048;-74
2022/01/25 07:18:10;;;;;;;20.27;11.48;;;;;;;1.27;47.33;100279.84;3376722;29;20511;-74
2022/01/25 07:19:51;;;;;;;20.75;11.32;;;;;;;1.29;47.57;100272.69;3375850;29;20021;-75
2022/01/25 07:21:31;;;;;;;23.33;11.32;;;;;;;1.31;47.17;100264.66;3375062;29;20052;-75
2022/01/25 07:23:13;;;;;;;24.80;12.43;;;;;;;1.35;47.24;100262.66;3377054;29;20049;-75
2022/01/25 07:24:53;;;;;;;23.33;13.15;;;;;;;1.35;47.27;100265.28;3377697;29;20117;-75
2022/01/25 07:26:34;;;;;;;21.42;11.20;;;;;;;1.36;47.07;100266.94;3377456;29;20070;-75
2022/01/25 07:28:15;;;;;;;21.73;12.18;;;;;;;1.36;47.39;100269.56;3376942;29;20052;-74
2022/01/25 07:29:56;;;;;;;21.97;11.20;;;;;;;1.36;47.19;100270.41;3375804;29;20117;-74
2022/01/25 07:31:37;;;;;;;20.50;11.63;;;;;;;1.38;47.10;100275.53;3374297;29;20053;-75
2022/01/25 07:33:18;;;;;;;21.05;10.10;;;;;;;1.38;47.28;100271.13;3374319;29;20045;-77
2022/01/25 07:34:58;;;;;;;20.98;11.57;;;;;;;1.39;47.28;100266.69;3373710;29;20036;-75
2022/01/25 07:36:42;;;;;;;17.33;10.40;;;;;;;1.43;47.13;100273.38;3373201;29;20052;-73
2022/01/25 07:38:22;;;;;;;23.80;11.70;;;;;;;1.43;47.27;100261.09;3371000;29;20184;-74
2022/01/25 07:40:04;;;;;;;19.98;10.82;;;;;;;1.43;47.16;100268.13;3368189;29;20049;-74
2022/01/25 07:41:48;;;;;;;21.02;10.45;;;;;;;1.45;46.98;100260.97;3369130;29;20056;-76
2022/01/25 07:43:30;;;;;;;15.93;9.68;;;;;;;1.44;46.98;100261.91;3367464;29;20132;-73
2022/01/25 07:45:11;;;;;;;17.90;9.07;;;;;;;1.48;47.20;100263.34;3370913;29;20108;-75
2022/01/25 07:46:52;;;;;;;21.75;11.32;;;;;;;1.46;46.98;100252.13;3373332;29;20056;-74
2022/01/25 07:48:33;;;;;;;14.35;9.52;;;;;;;1.43;47.20;100252.38;3371438;29;20048;-73
2022/01/25 07:50:14;;;;;;;14.45;8.38;;;;;;;1.37;47.13;100251.06;3367995;29;20061;-73
2022/01/25 07:51:57;;;;;;;16.77;9.65;;;;;;;1.36;47.06;100248.56;3366054;29;20132;-74
2022/01/25 07:53:41;;;;;;;16.30;8.32;;;;;;;1.32;47.15;100245.34;3368384;29;20068;-75
2022/01/25 07:55:24;;;;;;;18.02;9.63;;;;;;;1.28;47.06;100236.88;3381603;29;20044;-74
2022/01/25 07:57:05;;;;;;;17.48;9.25;;;;;;;1.28;47.04;100222.91;3372506;29;20125;-73
2022/01/25 07:58:46;;;;;;;17.83;9.05;;;;;;;1.27;46.75;100223.88;3378050;29;20072;-74
2022/01/25 08:00:29;;;;;;;15.73;8.90;;;;;;;1.27;47.12;100221.25;3377498;29;20037;-75
2022/01/25 08:02:15;;;;;;;17.35;8.98;;;;;;;1.25;46.98;100218.72;3383202;29;20104;-73
2022/01/25 08:03:56;;;;;;;19.30;10.63;;;;;;;1.28;46.85;100221.09;3382563;29;20197;-73
2022/01/25 08:05:37;;;;;;;19.67;10.57;;;;;;;1.29;46.84;100214.91;3381484;29;20040;-74
2022/01/25 08:07:18;;;;;;;18.15;10.02;;;;;;;1.33;47.01;100201.53;3381433;29;20048;-73
2022/01/25 08:09:00;;;;;;;18.20;9.52;;;;;;;1.37;47.11;100201.19;3372219;29;20065;-73
2022/01/25 08:10:40;;;;;;;15.07;8.82;;;;;;;1.44;47.19;100198.88;3378968;29;20496;-75
2022/01/25 08:12:22;;;;;;;14.82;8.57;;;;;;;1.49;46.76;100200.16;3381471;29;20047;-74
2022/01/25 08:14:16;;;;;;;13.57;8.48;;;;;;;1.53;46.94;100190.28;3373291;29;20041;-75
2022/01/25 08:16:00;;;;;;;19.08;9.05;;;;;;;1.56;47.07;100187.38;3384899;29;20168;-73
2022/01/25 08:17:41;;;;;;;13.90;8.65;;;;;;;1.57;47.01;100180.34;3386299;29;20044;-73
2022/01/25 08:19:22;;;;;;;22.63;10.85;;;;;;;1.60;47.01;100180.09;3385966;29;20124;-74
2022/01/25 08:21:03;;;;;;;19.83;9.93;;;;;;;1.62;46.85;100179.00;3385672;29;20059;-74
2022/01/25 08:22:44;;;;;;;13.20;8.73;;;;;;;1.66;46.94;100185.69;3386228;29;20396;-74
2022/01/25 08:24:25;;;;;;;11.80;7.43;;;;;;;1.67;46.88;100163.69;3381343;29;20048;-73
2022/01/25 08:26:06;;;;;;;15.40;8.40;;;;;;;1.73;46.73;100172.91;3372751;29;20049;-74
2022/01/25 08:27:48;;;;;;;12.20;8.30;;;;;;;1.77;46.58;100160.31;3373603;29;20113;-73
2022/01/25 08:29:29;;;;;;;15.30;8.40;;;;;;;1.81;46.78;100164.34;3369757;29;20045;-74
2022/01/25 08:31:10;;;;;;;14.80;7.90;;;;;;;1.83;46.92;100160.63;3371345;29;20068;-74
2022/01/25 08:32:51;;;;;;;17.95;9.35;;;;;;;1.86;46.66;100160.41;3372065;29;20060;-75
2022/01/25 08:34:33;;;;;;;15.00;9.32;;;;;;;1.90;46.81;100163.59;3372638;29;20044;-72
2022/01/25 08:36:14;;;;;;;17.38;8.70;;;;;;;1.93;46.66;100161.53;3369777;29;20143;-75
2022/01/25 08:37:54;;;;;;;12.77;8.25;;;;;;;1.95;46.81;100158.81;3368861;29;20230;-73
2022/01/25 08:39:35;;;;;;;15.68;8.63;;;;;;;1.92;46.74;100156.44;3369362;29;20389;-72
2022/01/25 08:41:17;;;;;;;18.30;8.25;;;;;;;1.89;46.63;100151.44;3370578;29;20047;-72
2022/01/25 08:42:57;;;;;;;17.88;7.53;;;;;;;1.90;46.57;100158.34;3370422;29;20044;-74
2022/01/25 08:44:38;;;;;;;15.60;8.68;;;;;;;1.91;46.71;100157.38;3369494;29;20519;-73
2022/01/25 08:46:19;;;;;;;11.93;7.63;;;;;;;1.91;46.89;100147.72;3372977;29;20053;-74
2022/01/25 08:48:27;;;;;;;10.85;7.53;;;;;;;2.01;46.62;100162.72;3382723;29;20104;-77
2022/01/25 08:50:09;;;;;;;12.65;8.00;;;;;;;1.91;46.49;100155.59;3373325;29;20064;-76
2022/01/25 08:51:50;;;;;;;13.95;7.75;;;;;;;1.86;46.52;100159.56;3386774;23;20512;-74
2022/01/25 08:53:33;;;;;;;12.25;7.32;;;;;;;1.82;46.65;100153.72;3373046;29;20081;-73
2022/01/25 08:55:13;;;;;;;11.45;7.00;;;;;;;1.80;46.70;100154.81;3371229;29;20105;-73
2022/01/25 08:56:54;;;;;;;16.25;8.27;;;;;;;1.80;46.64;100154.81;3372157;29;20053;-74
2022/01/25 08:58:36;;;;;;;15.38;8.10;;;;;;;1.80;46.83;100152.19;3371395;29;20068;-74
2022/01/25 09:00:19;;;;;;;12.75;7.10;;;;;;;1.78;46.73;100148.84;3373505;29;20437;-74
2022/01/25 09:02:00;;;;;;;11.63;6.55;;;;;;;1.77;46.92;100144.56;3371904;29;20052;-73
2022/01/25 09:03:41;;;;;;;15.45;7.63;;;;;;;1.76;46.67;100138.47;3365043;29;20119;-71
2022/01/25 09:05:21;;;;;;;14.77;7.07;;;;;;;1.78;46.55;100135.72;3366841;29;20127;-72
2022/01/25 09:07:02;;;;;;;13.50;7.10;;;;;;;1.79;46.43;100132.13;3366394;29;20144;-69
2022/01/25 09:08:43;;;;;;;12.02;7.38;;;;;;;1.81;46.65;100131.06;3369241;29;20477;-71
2022/01/25 09:10:28;;;;;;;12.90;7.70;;;;;;;1.83;46.43;100129.09;3368880;29;20566;-72
2022/01/25 09:12:09;;;;;;;13.88;9.32;;;;;;;1.87;46.56;100113.94;3367607;29;20041;-72
2022/01/25 09:13:50;;;;;;;12.18;7.10;;;;;;;1.89;46.49;100114.66;3369655;29;20047;-72
2022/01/25 09:15:31;;;;;;;11.25;8.00;;;;;;;1.91;46.64;100112.69;3369253;29;20033;-71
2022/01/25 09:17:13;;;;;;;12.80;7.63;;;;;;;1.90;46.52;100108.41;3369884;29;20120;-71
2022/01/25 09:18:54;;;;;;;12.98;7.85;;;;;;;1.89;46.68;100101.50;3369435;29;20037;-70
2022/01/25 09:20:35;;;;;;;14.23;7.03;;;;;;;1.89;46.63;100097.06;3368836;29;20041;-71
2022/01/25 09:22:16;;;;;;;12.25;7.50;;;;;;;1.89;46.58;100106.75;3370178;29;20048;-72
2022/01/25 09:23:57;;;;;;;11.27;7.43;;;;;;;1.85;46.61;100095.66;3370482;29;20040;-74
2022/01/25 09:25:38;;;;;;;16.50;9.38;;;;;;;1.84;46.67;100096.63;3370570;29;20048;-72
2022/01/25 09:27:19;;;;;;;11.77;6.55;;;;;;;1.82;46.45;100087.19;3369211;29;20047;-70
2022/01/25 09:28:59;;;;;;;14.05;7.80;;;;;;;1.81;46.71;100088.16;3370614;29;20056;-70
2022/01/25 09:30:40;;;;;;;15.27;9.10;;;;;;;1.79;46.36;100090.09;3369193;29;20036;-72
2022/01/25 09:32:21;;;;;;;11.77;6.25;;;;;;;1.78;46.69;100096.28;3370650;29;20041;-72
2022/01/25 09:34:02;;;;;;;14.60;7.70;;;;;;;1.74;46.72;100086.03;3367314;29;20041;-70
2022/01/25 09:35:44;;;;;;;12.38;8.00;;;;;;;1.71;46.46;100081.03;3367876;29;20445;-72
2022/01/25 09:37:25;;;;;;;11.25;6.45;;;;;;;1.71;46.67;100078.41;3365432;29;20060;-72
2022/01/25 09:39:06;;;;;;;8.50;6.50;;;;;;;1.70;46.35;100074.13;3371651;29;20037;-72
2022/01/25 09:40:47;;;;;;;9.18;6.38;;;;;;;1.66;46.69;100062.22;3369160;29;20037;-73
2022/01/25 09:42:29;;;;;;;8.48;4.85;;;;;;;1.61;46.51;100060.94;3371098;29;20043;-72
2022/01/25 09:44:10;;;;;;;8.88;5.90;;;;;;;1.62;46.61;100067.84;3369334;29;20071;-73
2022/01/25 09:45:51;;;;;;;9.18;5.80;;;;;;;1.58;46.74;100061.19;3370337;29;20055;-75
2022/01/25 09:47:33;;;;;;;10.85;5.07;;;;;;;1.53;46.78;100065.03;3369559;29;20041;-71
2022/01/25 09:49:16;;;;;;;12.70;6.78;;;;;;;1.50;46.44;100048.69;3366423;29;20045;-75
2022/01/25 09:50:58;;;;;;;11.65;6.15;;;;;;;1.47;46.73;100047.16;3366559;29;20192;-72
2022/01/25 09:52:41;;;;;;;8.02;5.10;;;;;;;1.48;46.49;100050.59;3367913;29;20512;-71
2022/01/25 09:54:22;;;;;;;11.48;5.90;;;;;;;1.45;46.47;100048.25;3370796;29;20049;-71
2022/01/25 09:56:06;;;;;;;8.40;5.78;;;;;;;1.38;46.53;100044.44;3368926;29;20064;-72
2022/01/25 09:57:47;;;;;;;11.98;6.82;;;;;;;1.36;46.76;100035.84;3373991;29;20041;-72
2022/01/25 09:59:29;;;;;;;8.23;5.60;;;;;;;1.35;46.90;100029.78;3368993;29;20453;-72
2022/01/25 10:01:10;;;;;;;10.98;5.78;;;;;;;1.37;46.75;100029.63;3370216;29;20044;-74
2022/01/25 10:02:56;;;;;;;11.27;5.85;;;;;;;1.37;46.72;100021.75;3369221;29;20037;-73
2022/01/25 10:04:40;;;;;;;8.90;5.30;;;;;;;1.38;46.47;100019.00;3369816;29;20479;-71
2022/01/25 10:06:22;;;;;;;10.02;6.13;;;;;;;1.36;46.56;100015.69;3371283;29;20045;-74
2022/01/25 10:08:24;;;;;;;8.18;5.45;;;;;;;1.39;46.69;99998.84;3366877;29;20057;-73
2022/01/25 10:10:06;;;;;;;10.38;6.55;;;;;;;1.43;46.84;100005.50;3357247;29;20549;-72
2022/01/25 10:11:48;;;;;;;11.73;6.45;;;;;;;1.47;46.83;100007.75;3363555;29;20048;-72